sensor_id;sensor_type;location;lat;lon;timestamp;temperature;humidity
780;DHT22;373;49.342;8.146;2023-07-29T00:02:15;21.00;99.90
780;DHT22;373;49.342;8.146;2023-07-29T00:04:42;20.90;99.90
780;DHT22;373;49.342;8.146;2023-07-29T00:07:09;20.80;99.90
780;DHT22;373;49.342;8.146;2023-07-29T00:09:36;20.70;99.90
780;DHT22;373;49.342;8.146;2023-07-29T00:12:04;20.80;99.90
780;DHT22;373;49.342;8.146;2023-07-29T00:14:31;20.70;99.90
780;DHT22;373;49.342;8.146;2023-07-29T00:16:58;21.10;99.90
780;DHT22;373;49.342;8.146;2023-07-29T00:19:26;21.20;99.90
780;DHT22;373;49.342;8.146;2023-07-29T00:21:54;21.30;99.90
780;DHT22;373;49.342;8.146;2023-07-29T00:24:21;21.40;99.90
780;DHT22;373;49.342;8.146;2023-07-29T00:26:48;21.20;99.90
780;DHT22;373;49.342;8.146;2023-07-29T00:29:15;21.40;99.90
780;DHT22;373;49.342;8.146;2023-07-29T00:31:43;21.60;86.70
780;DHT22;373;49.342;8.146;2023-07-29T00:34:10;21.70;42.90
780;DHT22;373;49.342;8.146;2023-07-29T00:36:44;21.70;79.80
780;DHT22;373;49.342;8.146;2023-07-29T00:39:12;21.60;64.20
780;DHT22;373;49.342;8.146;2023-07-29T00:41:39;21.50;88.50
780;DHT22;373;49.342;8.146;2023-07-29T00:44:06;21.60;81.50
780;DHT22;373;49.342;8.146;2023-07-29T00:46:34;21.70;60.50
780;DHT22;373;49.342;8.146;2023-07-29T00:49:02;21.80;26.60
780;DHT22;373;49.342;8.146;2023-07-29T00:51:29;21.70;42.30
780;DHT22;373;49.342;8.146;2023-07-29T00:53:58;21.50;75.00
780;DHT22;373;49.342;8.146;2023-07-29T00:56:25;21.60;81.50
780;DHT22;373;49.342;8.146;2023-07-29T00:58:52;21.50;91.70
780;DHT22;373;49.342;8.146;2023-07-29T01:01:24;21.50;99.90
780;DHT22;373;49.342;8.146;2023-07-29T01:03:52;21.40;99.90
780;DHT22;373;49.342;8.146;2023-07-29T01:06:26;21.50;85.00
780;DHT22;373;49.342;8.146;2023-07-29T01:08:59;21.50;93.60
780;DHT22;373;49.342;8.146;2023-07-29T01:11:35;21.80;41.70
780;DHT22;373;49.342;8.146;2023-07-29T01:14:12;21.60;51.30
780;DHT22;373;49.342;8.146;2023-07-29T01:16:52;21.30;99.90
780;DHT22;373;49.342;8.146;2023-07-29T01:19:32;21.20;99.90
780;DHT22;373;49.342;8.146;2023-07-29T01:22:03;21.00;99.90
780;DHT22;373;49.342;8.146;2023-07-29T01:24:31;21.10;99.90
780;DHT22;373;49.342;8.146;2023-07-29T01:26:58;20.90;99.90
780;DHT22;373;49.342;8.146;2023-07-29T01:29:27;21.00;99.90
780;DHT22;373;49.342;8.146;2023-07-29T01:31:57;21.20;99.90
780;DHT22;373;49.342;8.146;2023-07-29T01:34:32;21.30;99.90
780;DHT22;373;49.342;8.146;2023-07-29T01:37:02;21.40;99.90
780;DHT22;373;49.342;8.146;2023-07-29T01:39:36;21.00;99.90
780;DHT22;373;49.342;8.146;2023-07-29T01:42:04;20.80;99.90
780;DHT22;373;49.342;8.146;2023-07-29T01:44:32;20.70;99.90
780;DHT22;373;49.342;8.146;2023-07-29T01:47:00;20.80;99.90
780;DHT22;373;49.342;8.146;2023-07-29T01:49:27;20.90;99.90
780;DHT22;373;49.342;8.146;2023-07-29T01:51:54;21.00;99.90
780;DHT22;373;49.342;8.146;2023-07-29T01:54:21;21.10;99.90
780;DHT22;373;49.342;8.146;2023-07-29T01:56:50;21.10;95.40
780;DHT22;373;49.342;8.146;2023-07-29T01:59:17;21.20;99.90
780;DHT22;373;49.342;8.146;2023-07-29T02:01:44;21.20;99.90
780;DHT22;373;49.342;8.146;2023-07-29T02:04:12;20.50;99.90
780;DHT22;373;49.342;8.146;2023-07-29T02:06:39;20.50;99.90
780;DHT22;373;49.342;8.146;2023-07-29T02:09:06;20.70;99.90
780;DHT22;373;49.342;8.146;2023-07-29T02:11:33;20.80;99.90
780;DHT22;373;49.342;8.146;2023-07-29T02:14:02;20.60;99.90
780;DHT22;373;49.342;8.146;2023-07-29T02:16:29;20.60;99.90
780;DHT22;373;49.342;8.146;2023-07-29T02:18:56;20.70;99.90
780;DHT22;373;49.342;8.146;2023-07-29T02:21:23;20.40;99.90
780;DHT22;373;49.342;8.146;2023-07-29T02:23:50;20.50;99.90
780;DHT22;373;49.342;8.146;2023-07-29T02:26:17;20.60;99.90
780;DHT22;373;49.342;8.146;2023-07-29T02:28:44;20.80;99.90
780;DHT22;373;49.342;8.146;2023-07-29T02:31:17;20.90;99.90
780;DHT22;373;49.342;8.146;2023-07-29T02:33:45;20.90;99.90
780;DHT22;373;49.342;8.146;2023-07-29T02:36:13;20.80;99.90
780;DHT22;373;49.342;8.146;2023-07-29T02:38:41;20.80;99.90
780;DHT22;373;49.342;8.146;2023-07-29T02:41:09;20.70;99.90
780;DHT22;373;49.342;8.146;2023-07-29T02:43:38;20.70;99.90
780;DHT22;373;49.342;8.146;2023-07-29T02:46:06;21.00;99.90
780;DHT22;373;49.342;8.146;2023-07-29T02:48:35;21.00;99.90
780;DHT22;373;49.342;8.146;2023-07-29T02:51:02;21.20;99.90
780;DHT22;373;49.342;8.146;2023-07-29T02:53:29;21.20;99.90
780;DHT22;373;49.342;8.146;2023-07-29T02:55:56;21.20;99.90
780;DHT22;373;49.342;8.146;2023-07-29T02:58:23;21.30;99.10
780;DHT22;373;49.342;8.146;2023-07-29T03:00:52;21.50;62.50
780;DHT22;373;49.342;8.146;2023-07-29T03:03:19;21.50;60.20
780;DHT22;373;49.342;8.146;2023-07-29T03:05:47;21.50;27.10
780;DHT22;373;49.342;8.146;2023-07-29T03:08:14;21.50;43.70
780;DHT22;373;49.342;8.146;2023-07-29T03:10:41;21.50;39.50
780;DHT22;373;49.342;8.146;2023-07-29T03:13:08;21.30;94.90
780;DHT22;373;49.342;8.146;2023-07-29T03:15:36;21.40;80.20
780;DHT22;373;49.342;8.146;2023-07-29T03:18:03;21.40;82.90
780;DHT22;373;49.342;8.146;2023-07-29T03:20:30;21.30;98.20
780;DHT22;373;49.342;8.146;2023-07-29T03:22:59;21.40;89.50
780;DHT22;373;49.342;8.146;2023-07-29T03:25:26;21.30;94.20
780;DHT22;373;49.342;8.146;2023-07-29T03:27:54;21.20;90.30
780;DHT22;373;49.342;8.146;2023-07-29T03:30:22;20.80;99.90
780;DHT22;373;49.342;8.146;2023-07-29T03:32:50;20.70;99.90
780;DHT22;373;49.342;8.146;2023-07-29T03:35:17;20.70;99.90
780;DHT22;373;49.342;8.146;2023-07-29T03:37:45;20.70;99.90
780;DHT22;373;49.342;8.146;2023-07-29T03:40:14;20.80;99.90
780;DHT22;373;49.342;8.146;2023-07-29T03:42:41;21.00;99.90
780;DHT22;373;49.342;8.146;2023-07-29T03:45:09;21.30;99.90
780;DHT22;373;49.342;8.146;2023-07-29T03:47:36;21.30;81.10
780;DHT22;373;49.342;8.146;2023-07-29T03:50:03;21.20;81.20
780;DHT22;373;49.342;8.146;2023-07-29T03:52:31;21.20;99.90
780;DHT22;373;49.342;8.146;2023-07-29T03:54:58;21.40;90.00
780;DHT22;373;49.342;8.146;2023-07-29T03:57:26;21.60;33.60
780;DHT22;373;49.342;8.146;2023-07-29T03:59:54;21.30;90.60
780;DHT22;373;49.342;8.146;2023-07-29T04:02:21;21.30;93.40
780;DHT22;373;49.342;8.146;2023-07-29T04:04:48;21.50;60.10
780;DHT22;373;49.342;8.146;2023-07-29T04:07:16;21.50;43.80
780;DHT22;373;49.342;8.146;2023-07-29T04:09:43;21.60;22.10
780;DHT22;373;49.342;8.146;2023-07-29T04:12:10;21.50;36.50
780;DHT22;373;49.342;8.146;2023-07-29T04:14:39;21.50;44.30
780;DHT22;373;49.342;8.146;2023-07-29T04:17:07;21.50;31.30
780;DHT22;373;49.342;8.146;2023-07-29T04:19:34;21.10;97.80
780;DHT22;373;49.342;8.146;2023-07-29T04:22:01;21.10;99.90
780;DHT22;373;49.342;8.146;2023-07-29T04:24:28;21.30;99.90
780;DHT22;373;49.342;8.146;2023-07-29T04:26:55;21.40;89.20
780;DHT22;373;49.342;8.146;2023-07-29T04:29:22;21.10;99.90
780;DHT22;373;49.342;8.146;2023-07-29T04:31:51;21.00;99.90
780;DHT22;373;49.342;8.146;2023-07-29T04:34:18;20.70;99.90
780;DHT22;373;49.342;8.146;2023-07-29T04:36:45;20.80;99.90
780;DHT22;373;49.342;8.146;2023-07-29T04:39:13;20.50;99.90
780;DHT22;373;49.342;8.146;2023-07-29T04:41:40;20.10;99.90
780;DHT22;373;49.342;8.146;2023-07-29T04:44:07;19.70;99.90
780;DHT22;373;49.342;8.146;2023-07-29T04:46:36;19.50;99.90
780;DHT22;373;49.342;8.146;2023-07-29T04:49:04;19.40;99.90
780;DHT22;373;49.342;8.146;2023-07-29T04:51:32;19.60;99.90
780;DHT22;373;49.342;8.146;2023-07-29T04:54:00;19.30;99.90
780;DHT22;373;49.342;8.146;2023-07-29T04:56:27;19.40;99.90
780;DHT22;373;49.342;8.146;2023-07-29T04:58:54;19.20;99.90
780;DHT22;373;49.342;8.146;2023-07-29T05:01:25;19.40;99.90
780;DHT22;373;49.342;8.146;2023-07-29T05:03:52;19.40;99.90
780;DHT22;373;49.342;8.146;2023-07-29T05:06:21;19.50;99.90
780;DHT22;373;49.342;8.146;2023-07-29T05:08:48;19.70;99.90
780;DHT22;373;49.342;8.146;2023-07-29T05:11:15;19.80;99.90
780;DHT22;373;49.342;8.146;2023-07-29T05:13:42;19.90;99.90
780;DHT22;373;49.342;8.146;2023-07-29T05:16:10;20.00;99.90
780;DHT22;373;49.342;8.146;2023-07-29T05:18:37;20.10;99.90
780;DHT22;373;49.342;8.146;2023-07-29T05:21:04;20.10;99.90
780;DHT22;373;49.342;8.146;2023-07-29T05:23:33;20.10;99.90
780;DHT22;373;49.342;8.146;2023-07-29T05:26:00;20.10;99.90
780;DHT22;373;49.342;8.146;2023-07-29T05:28:27;20.20;99.90
780;DHT22;373;49.342;8.146;2023-07-29T05:30:54;20.40;99.90
780;DHT22;373;49.342;8.146;2023-07-29T05:33:21;20.50;99.90
780;DHT22;373;49.342;8.146;2023-07-29T05:35:48;20.70;99.90
780;DHT22;373;49.342;8.146;2023-07-29T05:38:15;20.50;99.90
780;DHT22;373;49.342;8.146;2023-07-29T05:40:44;20.40;99.90
780;DHT22;373;49.342;8.146;2023-07-29T05:43:11;20.10;99.90
780;DHT22;373;49.342;8.146;2023-07-29T05:45:38;20.00;99.90
780;DHT22;373;49.342;8.146;2023-07-29T05:48:05;19.80;99.90
780;DHT22;373;49.342;8.146;2023-07-29T05:50:32;19.80;99.90
780;DHT22;373;49.342;8.146;2023-07-29T05:53:00;19.70;99.90
780;DHT22;373;49.342;8.146;2023-07-29T05:55:27;19.70;99.90
780;DHT22;373;49.342;8.146;2023-07-29T05:57:56;19.70;99.90
780;DHT22;373;49.342;8.146;2023-07-29T06:00:23;19.60;99.90
780;DHT22;373;49.342;8.146;2023-07-29T06:02:50;19.60;99.90
780;DHT22;373;49.342;8.146;2023-07-29T06:05:20;19.70;99.90
780;DHT22;373;49.342;8.146;2023-07-29T06:07:48;19.70;99.90
780;DHT22;373;49.342;8.146;2023-07-29T06:10:15;19.70;99.90
780;DHT22;373;49.342;8.146;2023-07-29T06:12:44;19.70;99.90
780;DHT22;373;49.342;8.146;2023-07-29T06:15:12;19.80;99.90
780;DHT22;373;49.342;8.146;2023-07-29T06:17:40;20.00;99.90
780;DHT22;373;49.342;8.146;2023-07-29T06:20:08;19.90;99.90
780;DHT22;373;49.342;8.146;2023-07-29T06:22:35;19.90;99.90
780;DHT22;373;49.342;8.146;2023-07-29T06:25:04;19.80;99.90
780;DHT22;373;49.342;8.146;2023-07-29T06:27:31;19.80;99.90
780;DHT22;373;49.342;8.146;2023-07-29T06:29:58;19.80;99.90
780;DHT22;373;49.342;8.146;2023-07-29T06:32:26;19.90;99.90
780;DHT22;373;49.342;8.146;2023-07-29T06:34:53;19.90;99.90
780;DHT22;373;49.342;8.146;2023-07-29T06:37:20;20.00;99.90
780;DHT22;373;49.342;8.146;2023-07-29T06:39:48;20.20;99.90
780;DHT22;373;49.342;8.146;2023-07-29T06:42:15;20.20;99.90
780;DHT22;373;49.342;8.146;2023-07-29T06:44:42;20.30;99.90
780;DHT22;373;49.342;8.146;2023-07-29T06:47:11;20.40;99.90
780;DHT22;373;49.342;8.146;2023-07-29T06:49:40;20.60;99.90
780;DHT22;373;49.342;8.146;2023-07-29T06:52:07;20.80;99.90
780;DHT22;373;49.342;8.146;2023-07-29T06:54:34;21.10;99.90
780;DHT22;373;49.342;8.146;2023-07-29T06:57:01;21.40;99.90
780;DHT22;373;49.342;8.146;2023-07-29T06:59:28;21.60;99.90
780;DHT22;373;49.342;8.146;2023-07-29T07:01:55;21.70;99.90
780;DHT22;373;49.342;8.146;2023-07-29T07:04:22;21.60;99.90
780;DHT22;373;49.342;8.146;2023-07-29T07:06:50;21.50;99.90
780;DHT22;373;49.342;8.146;2023-07-29T07:09:17;21.70;99.90
780;DHT22;373;49.342;8.146;2023-07-29T07:11:45;21.90;99.90
780;DHT22;373;49.342;8.146;2023-07-29T07:14:12;22.20;99.90
780;DHT22;373;49.342;8.146;2023-07-29T07:16:39;22.40;96.50
780;DHT22;373;49.342;8.146;2023-07-29T07:19:06;22.30;99.90
780;DHT22;373;49.342;8.146;2023-07-29T07:21:33;22.20;99.90
780;DHT22;373;49.342;8.146;2023-07-29T07:24:01;22.30;99.90
780;DHT22;373;49.342;8.146;2023-07-29T07:26:29;22.50;99.90
780;DHT22;373;49.342;8.146;2023-07-29T07:28:56;22.30;72.10
780;DHT22;373;49.342;8.146;2023-07-29T07:31:23;22.40;61.90
780;DHT22;373;49.342;8.146;2023-07-29T07:33:50;22.50;61.80
780;DHT22;373;49.342;8.146;2023-07-29T07:36:17;22.70;48.30
780;DHT22;373;49.342;8.146;2023-07-29T07:38:44;22.70;57.80
780;DHT22;373;49.342;8.146;2023-07-29T07:41:12;22.80;22.40
780;DHT22;373;49.342;8.146;2023-07-29T07:43:39;22.70;34.90
780;DHT22;373;49.342;8.146;2023-07-29T07:46:06;22.80;47.80
780;DHT22;373;49.342;8.146;2023-07-29T07:48:33;22.60;1.00
780;DHT22;373;49.342;8.146;2023-07-29T07:51:04;22.60;24.40
780;DHT22;373;49.342;8.146;2023-07-29T07:53:36;22.40;44.50
780;DHT22;373;49.342;8.146;2023-07-29T07:56:03;22.30;63.80
780;DHT22;373;49.342;8.146;2023-07-29T07:58:31;22.60;99.70
780;DHT22;373;49.342;8.146;2023-07-29T08:01:01;22.40;44.40
780;DHT22;373;49.342;8.146;2023-07-29T08:03:28;22.40;12.20
780;DHT22;373;49.342;8.146;2023-07-29T08:05:55;22.30;25.50
780;DHT22;373;49.342;8.146;2023-07-29T08:08:22;22.10;87.30
780;DHT22;373;49.342;8.146;2023-07-29T08:10:49;22.20;82.10
780;DHT22;373;49.342;8.146;2023-07-29T08:13:16;22.20;72.80
780;DHT22;373;49.342;8.146;2023-07-29T08:15:47;22.40;90.80
780;DHT22;373;49.342;8.146;2023-07-29T08:18:14;22.60;34.00
780;DHT22;373;49.342;8.146;2023-07-29T08:20:50;22.80;1.00
780;DHT22;373;49.342;8.146;2023-07-29T08:23:17;22.70;20.10
780;DHT22;373;49.342;8.146;2023-07-29T08:25:44;22.70;1.00
780;DHT22;373;49.342;8.146;2023-07-29T08:28:11;23.10;1.00
780;DHT22;373;49.342;8.146;2023-07-29T08:30:38;23.90;1.00
780;DHT22;373;49.342;8.146;2023-07-29T08:33:07;24.60;1.00
780;DHT22;373;49.342;8.146;2023-07-29T08:35:34;25.20;99.90
780;DHT22;373;49.342;8.146;2023-07-29T08:38:01;25.00;99.90
780;DHT22;373;49.342;8.146;2023-07-29T08:40:29;24.70;99.90
780;DHT22;373;49.342;8.146;2023-07-29T08:42:58;24.20;1.00
780;DHT22;373;49.342;8.146;2023-07-29T08:45:31;24.50;1.00
780;DHT22;373;49.342;8.146;2023-07-29T08:48:02;24.30;1.00
780;DHT22;373;49.342;8.146;2023-07-29T08:50:33;24.50;1.00
780;DHT22;373;49.342;8.146;2023-07-29T08:53:03;24.40;99.90
780;DHT22;373;49.342;8.146;2023-07-29T08:55:31;24.70;99.90
780;DHT22;373;49.342;8.146;2023-07-29T08:57:59;24.90;1.00
780;DHT22;373;49.342;8.146;2023-07-29T09:00:27;25.40;1.00
780;DHT22;373;49.342;8.146;2023-07-29T09:02:54;25.90;1.00
780;DHT22;373;49.342;8.146;2023-07-29T09:05:23;26.00;1.00
780;DHT22;373;49.342;8.146;2023-07-29T09:07:53;26.20;99.90
780;DHT22;373;49.342;8.146;2023-07-29T09:10:22;26.20;99.90
780;DHT22;373;49.342;8.146;2023-07-29T09:12:49;26.40;99.90
780;DHT22;373;49.342;8.146;2023-07-29T09:15:27;26.20;99.90
780;DHT22;373;49.342;8.146;2023-07-29T09:17:56;26.30;99.90
780;DHT22;373;49.342;8.146;2023-07-29T09:20:24;26.60;2.50
780;DHT22;373;49.342;8.146;2023-07-29T09:22:55;26.20;51.90
780;DHT22;373;49.342;8.146;2023-07-29T09:25:23;26.00;97.50
780;DHT22;373;49.342;8.146;2023-07-29T09:27:51;26.10;1.00
780;DHT22;373;49.342;8.146;2023-07-29T09:30:18;26.30;1.00
780;DHT22;373;49.342;8.146;2023-07-29T10:29:55;27.70;99.90
780;DHT22;373;49.342;8.146;2023-07-29T10:32:25;27.00;1.00
780;DHT22;373;49.342;8.146;2023-07-29T10:34:53;27.30;1.00
780;DHT22;373;49.342;8.146;2023-07-29T10:37:21;26.90;1.00
780;DHT22;373;49.342;8.146;2023-07-29T10:39:55;26.00;1.00
780;DHT22;373;49.342;8.146;2023-07-29T10:42:22;25.30;99.90
780;DHT22;373;49.342;8.146;2023-07-29T10:44:50;24.90;99.90
780;DHT22;373;49.342;8.146;2023-07-29T10:47:22;24.90;99.90
780;DHT22;373;49.342;8.146;2023-07-29T10:49:51;25.30;1.00
780;DHT22;373;49.342;8.146;2023-07-29T10:52:30;25.60;24.20
780;DHT22;373;49.342;8.146;2023-07-29T10:54:58;26.00;61.80
780;DHT22;373;49.342;8.146;2023-07-29T10:57:32;25.70;44.20
780;DHT22;373;49.342;8.146;2023-07-29T11:00:00;25.50;99.90
780;DHT22;373;49.342;8.146;2023-07-29T11:02:31;25.90;99.90
780;DHT22;373;49.342;8.146;2023-07-29T11:05:00;26.30;99.90
780;DHT22;373;49.342;8.146;2023-07-29T11:07:31;26.20;99.90
780;DHT22;373;49.342;8.146;2023-07-29T11:10:09;25.70;1.00
780;DHT22;373;49.342;8.146;2023-07-29T11:12:42;26.50;1.00
780;DHT22;373;49.342;8.146;2023-07-29T11:15:19;26.60;1.00
780;DHT22;373;49.342;8.146;2023-07-29T11:17:49;26.90;1.00
780;DHT22;373;49.342;8.146;2023-07-29T11:20:17;26.80;1.00
780;DHT22;373;49.342;8.146;2023-07-29T11:22:44;26.90;99.90
780;DHT22;373;49.342;8.146;2023-07-29T11:25:13;27.20;99.90
780;DHT22;373;49.342;8.146;2023-07-29T11:27:41;27.50;99.90
780;DHT22;373;49.342;8.146;2023-07-29T11:30:10;27.80;1.00
780;DHT22;373;49.342;8.146;2023-07-29T11:32:38;27.70;99.90
780;DHT22;373;49.342;8.146;2023-07-29T11:35:09;27.80;99.90
780;DHT22;373;49.342;8.146;2023-07-29T11:37:37;27.70;99.90
780;DHT22;373;49.342;8.146;2023-07-29T11:40:05;27.70;99.90
780;DHT22;373;49.342;8.146;2023-07-29T11:42:34;27.70;99.90
780;DHT22;373;49.342;8.146;2023-07-29T11:45:02;27.70;99.90
780;DHT22;373;49.342;8.146;2023-07-29T11:47:29;27.50;99.90
780;DHT22;373;49.342;8.146;2023-07-29T11:49:59;28.00;99.90
780;DHT22;373;49.342;8.146;2023-07-29T11:52:29;28.10;99.90
780;DHT22;373;49.342;8.146;2023-07-29T11:54:58;27.90;99.90
780;DHT22;373;49.342;8.146;2023-07-29T11:57:25;28.30;99.90
780;DHT22;373;49.342;8.146;2023-07-29T11:59:53;28.60;99.90
780;DHT22;373;49.342;8.146;2023-07-29T12:02:20;28.40;99.90
780;DHT22;373;49.342;8.146;2023-07-29T12:04:48;27.80;99.90
780;DHT22;373;49.342;8.146;2023-07-29T12:07:17;27.90;99.90
780;DHT22;373;49.342;8.146;2023-07-29T12:09:46;28.20;99.90
780;DHT22;373;49.342;8.146;2023-07-29T12:12:14;28.40;99.90
780;DHT22;373;49.342;8.146;2023-07-29T12:14:44;28.10;99.90
780;DHT22;373;49.342;8.146;2023-07-29T12:17:12;27.80;99.90
780;DHT22;373;49.342;8.146;2023-07-29T12:19:40;28.30;99.90
780;DHT22;373;49.342;8.146;2023-07-29T12:22:09;28.50;99.90
780;DHT22;373;49.342;8.146;2023-07-29T12:24:38;28.90;99.90
780;DHT22;373;49.342;8.146;2023-07-29T12:27:10;29.00;99.90
780;DHT22;373;49.342;8.146;2023-07-29T12:29:40;28.80;99.90
780;DHT22;373;49.342;8.146;2023-07-29T12:32:08;28.90;99.90
780;DHT22;373;49.342;8.146;2023-07-29T12:34:37;28.40;99.90
780;DHT22;373;49.342;8.146;2023-07-29T12:37:06;28.50;99.90
780;DHT22;373;49.342;8.146;2023-07-29T12:39:34;28.20;99.90
780;DHT22;373;49.342;8.146;2023-07-29T12:42:03;28.10;99.90
780;DHT22;373;49.342;8.146;2023-07-29T12:44:32;28.40;99.90
780;DHT22;373;49.342;8.146;2023-07-29T12:47:01;28.60;99.90
780;DHT22;373;49.342;8.146;2023-07-29T12:49:29;28.70;99.90
780;DHT22;373;49.342;8.146;2023-07-29T12:51:56;28.60;99.90
780;DHT22;373;49.342;8.146;2023-07-29T12:54:23;28.80;99.90
780;DHT22;373;49.342;8.146;2023-07-29T12:56:51;28.80;99.90
780;DHT22;373;49.342;8.146;2023-07-29T12:59:18;28.70;99.90
780;DHT22;373;49.342;8.146;2023-07-29T13:01:47;28.50;99.90
780;DHT22;373;49.342;8.146;2023-07-29T13:04:14;27.90;99.90
780;DHT22;373;49.342;8.146;2023-07-29T13:06:41;27.80;99.90
780;DHT22;373;49.342;8.146;2023-07-29T13:09:08;28.10;99.90
780;DHT22;373;49.342;8.146;2023-07-29T13:11:35;27.90;99.90
780;DHT22;373;49.342;8.146;2023-07-29T13:14:02;27.80;99.90
780;DHT22;373;49.342;8.146;2023-07-29T13:16:29;27.40;99.90
780;DHT22;373;49.342;8.146;2023-07-29T13:18:57;27.20;99.90
780;DHT22;373;49.342;8.146;2023-07-29T13:21:24;27.40;99.90
780;DHT22;373;49.342;8.146;2023-07-29T13:23:51;27.50;99.90
780;DHT22;373;49.342;8.146;2023-07-29T13:26:19;27.70;99.90
780;DHT22;373;49.342;8.146;2023-07-29T13:28:46;27.30;99.90
780;DHT22;373;49.342;8.146;2023-07-29T13:31:13;27.40;99.90
780;DHT22;373;49.342;8.146;2023-07-29T13:33:40;27.10;99.90
780;DHT22;373;49.342;8.146;2023-07-29T13:36:08;27.10;99.90
780;DHT22;373;49.342;8.146;2023-07-29T13:38:35;27.40;99.90
780;DHT22;373;49.342;8.146;2023-07-29T13:41:03;27.70;99.90
780;DHT22;373;49.342;8.146;2023-07-29T13:43:30;27.60;99.90
780;DHT22;373;49.342;8.146;2023-07-29T13:45:57;27.80;99.90
780;DHT22;373;49.342;8.146;2023-07-29T13:48:24;28.10;99.90
780;DHT22;373;49.342;8.146;2023-07-29T13:50:51;28.10;99.90
780;DHT22;373;49.342;8.146;2023-07-29T13:53:19;28.30;99.90
780;DHT22;373;49.342;8.146;2023-07-29T13:55:46;28.30;99.90
780;DHT22;373;49.342;8.146;2023-07-29T13:58:13;28.00;99.90
780;DHT22;373;49.342;8.146;2023-07-29T14:00:40;27.30;99.90
780;DHT22;373;49.342;8.146;2023-07-29T14:03:07;27.20;99.90
780;DHT22;373;49.342;8.146;2023-07-29T14:05:34;27.30;99.90
780;DHT22;373;49.342;8.146;2023-07-29T14:08:01;27.30;99.90
780;DHT22;373;49.342;8.146;2023-07-29T14:10:30;27.00;99.90
780;DHT22;373;49.342;8.146;2023-07-29T14:12:57;27.30;99.90
780;DHT22;373;49.342;8.146;2023-07-29T14:15:24;27.50;99.90
780;DHT22;373;49.342;8.146;2023-07-29T14:17:51;27.30;99.90
780;DHT22;373;49.342;8.146;2023-07-29T14:20:18;27.20;99.90
780;DHT22;373;49.342;8.146;2023-07-29T14:22:45;27.00;99.90
780;DHT22;373;49.342;8.146;2023-07-29T14:25:12;27.10;99.90
780;DHT22;373;49.342;8.146;2023-07-29T14:27:41;27.50;99.90
780;DHT22;373;49.342;8.146;2023-07-29T14:30:08;27.80;99.90
780;DHT22;373;49.342;8.146;2023-07-29T14:32:35;27.70;99.90
780;DHT22;373;49.342;8.146;2023-07-29T14:35:03;27.50;99.90
780;DHT22;373;49.342;8.146;2023-07-29T14:37:30;27.70;99.90
780;DHT22;373;49.342;8.146;2023-07-29T14:39:57;27.60;99.90
780;DHT22;373;49.342;8.146;2023-07-29T14:42:25;27.80;99.90
780;DHT22;373;49.342;8.146;2023-07-29T14:44:53;28.10;99.90
780;DHT22;373;49.342;8.146;2023-07-29T14:47:21;28.30;99.90
780;DHT22;373;49.342;8.146;2023-07-29T14:49:48;28.20;99.90
780;DHT22;373;49.342;8.146;2023-07-29T14:52:15;28.40;99.90
780;DHT22;373;49.342;8.146;2023-07-29T14:54:42;28.60;99.90
780;DHT22;373;49.342;8.146;2023-07-29T14:57:10;28.80;99.90
780;DHT22;373;49.342;8.146;2023-07-29T14:59:37;29.00;99.90
780;DHT22;373;49.342;8.146;2023-07-29T15:02:06;28.50;99.90
780;DHT22;373;49.342;8.146;2023-07-29T15:04:33;27.90;99.90
780;DHT22;373;49.342;8.146;2023-07-29T15:07:02;27.70;99.90
780;DHT22;373;49.342;8.146;2023-07-29T15:09:29;27.70;99.90
780;DHT22;373;49.342;8.146;2023-07-29T15:11:56;27.30;99.90
780;DHT22;373;49.342;8.146;2023-07-29T15:14:23;27.10;99.90
780;DHT22;373;49.342;8.146;2023-07-29T15:16:50;27.20;99.90
780;DHT22;373;49.342;8.146;2023-07-29T15:19:18;27.40;99.90
780;DHT22;373;49.342;8.146;2023-07-29T15:21:45;27.60;99.90
780;DHT22;373;49.342;8.146;2023-07-29T15:24:12;27.80;99.90
780;DHT22;373;49.342;8.146;2023-07-29T15:26:40;27.90;99.90
780;DHT22;373;49.342;8.146;2023-07-29T15:29:07;27.80;99.90
780;DHT22;373;49.342;8.146;2023-07-29T15:31:34;27.60;99.90
780;DHT22;373;49.342;8.146;2023-07-29T15:34:02;27.60;99.90
780;DHT22;373;49.342;8.146;2023-07-29T15:36:30;27.80;99.90
780;DHT22;373;49.342;8.146;2023-07-29T15:39:00;27.80;99.90
780;DHT22;373;49.342;8.146;2023-07-29T15:41:31;27.70;99.90
780;DHT22;373;49.342;8.146;2023-07-29T15:43:59;27.60;99.90
780;DHT22;373;49.342;8.146;2023-07-29T15:46:26;27.30;99.90
780;DHT22;373;49.342;8.146;2023-07-29T15:48:53;27.20;99.90
780;DHT22;373;49.342;8.146;2023-07-29T15:51:25;27.40;99.90
780;DHT22;373;49.342;8.146;2023-07-29T15:53:53;27.20;99.90
780;DHT22;373;49.342;8.146;2023-07-29T15:56:20;27.30;99.90
780;DHT22;373;49.342;8.146;2023-07-29T15:58:47;27.70;99.90
780;DHT22;373;49.342;8.146;2023-07-29T16:01:15;27.80;99.90
780;DHT22;373;49.342;8.146;2023-07-29T16:03:42;28.00;99.90
780;DHT22;373;49.342;8.146;2023-07-29T16:06:09;28.10;99.90
780;DHT22;373;49.342;8.146;2023-07-29T16:08:36;28.20;99.90
780;DHT22;373;49.342;8.146;2023-07-29T16:11:05;28.10;99.90
780;DHT22;373;49.342;8.146;2023-07-29T16:13:32;27.20;99.90
780;DHT22;373;49.342;8.146;2023-07-29T16:15:59;26.50;99.90
780;DHT22;373;49.342;8.146;2023-07-29T16:18:26;25.80;1.00
780;DHT22;373;49.342;8.146;2023-07-29T16:20:53;25.50;1.00
780;DHT22;373;49.342;8.146;2023-07-29T16:23:27;25.40;75.00
780;DHT22;373;49.342;8.146;2023-07-29T16:25:54;25.20;99.90
780;DHT22;373;49.342;8.146;2023-07-29T16:28:22;24.70;1.00
780;DHT22;373;49.342;8.146;2023-07-29T17:19:17;24.40;99.90
780;DHT22;373;49.342;8.146;2023-07-29T17:21:44;24.20;33.50
780;DHT22;373;49.342;8.146;2023-07-29T17:24:11;24.10;50.30
780;DHT22;373;49.342;8.146;2023-07-29T17:26:38;24.10;99.90
780;DHT22;373;49.342;8.146;2023-07-29T17:29:05;24.10;99.90
780;DHT22;373;49.342;8.146;2023-07-29T17:31:32;24.00;98.10
780;DHT22;373;49.342;8.146;2023-07-29T17:33:59;23.90;1.00
780;DHT22;373;49.342;8.146;2023-07-29T17:36:27;23.90;1.00
780;DHT22;373;49.342;8.146;2023-07-29T17:38:54;23.80;1.00
780;DHT22;373;49.342;8.146;2023-07-29T17:41:21;23.90;99.90
780;DHT22;373;49.342;8.146;2023-07-29T17:43:48;24.00;99.90
780;DHT22;373;49.342;8.146;2023-07-29T17:46:15;24.00;1.00
780;DHT22;373;49.342;8.146;2023-07-29T17:48:46;24.00;1.00
780;DHT22;373;49.342;8.146;2023-07-29T17:51:13;24.00;1.00
780;DHT22;373;49.342;8.146;2023-07-29T17:53:41;23.90;99.90
780;DHT22;373;49.342;8.146;2023-07-29T17:56:08;23.90;99.90
780;DHT22;373;49.342;8.146;2023-07-29T17:58:36;23.90;99.90
780;DHT22;373;49.342;8.146;2023-07-29T18:01:03;23.90;1.00
780;DHT22;373;49.342;8.146;2023-07-29T18:03:30;23.80;1.00
780;DHT22;373;49.342;8.146;2023-07-29T18:05:57;23.80;99.90
780;DHT22;373;49.342;8.146;2023-07-29T18:08:25;23.80;1.00
780;DHT22;373;49.342;8.146;2023-07-29T18:10:53;23.70;1.00
780;DHT22;373;49.342;8.146;2023-07-29T18:13:21;24.00;1.00
780;DHT22;373;49.342;8.146;2023-07-29T18:15:51;23.90;1.00
780;DHT22;373;49.342;8.146;2023-07-29T18:18:18;23.90;1.00
780;DHT22;373;49.342;8.146;2023-07-29T18:20:48;23.90;1.00
780;DHT22;373;49.342;8.146;2023-07-29T18:23:15;23.70;6.70
780;DHT22;373;49.342;8.146;2023-07-29T18:25:42;23.70;25.50
780;DHT22;373;49.342;8.146;2023-07-29T18:28:11;23.90;2.10